ENFB/FBU METAR and TAF weather

Enter ICAO airport designator
Station Type Date Time Source
ENFB METAR 2018/04/19 12:50 UTC NOAA

ENFB 191250Z AUTO 20026KT //// BKN072/// 08/07 Q1020 W///S4


Station Type Date Time Source
ENFB Decoded METAR 2018/04/19 12:50 UTC NOAA

Oslo / Fornebu, Norway (ENFB) 59-54N 010-38E 17M
Apr 19, 2018 - 08:50 AM EDT / 2018.04.19 1250 UTC
Wind: from the SSW (200 degrees) at 30 MPH (26 KT):0
Sky conditions: mostly cloudy
Temperature: 46 F (8 C)
Dew Point: 44 F (7 C)
Relative Humidity: 93%
Pressure (altimeter): 30.12 in. Hg (1020 hPa)
ob: ENFB 191250Z AUTO 20026KT //// BKN072/// 08/07 Q1020 W///S4
cycle: 13

Station Type Date Time Source
ENFB TAF UTC NOAA

Error!


Example: see airport list